Time;durP1;ratioP1;P1;durP2;ratioP2;P2;SDS_P1;SDS_P2;PMS_P1;PMS_P2;Temp;Humidity;BMP_temperature;BMP_pressure;BME280_temperature;BME280_humidity;BME280_pressure;Samples;Min_cycle;Max_cycle;Signal;HPM_P1;HPM_P2
2022/08/18 00:00:42;;;;;;;9.43;8.45;;;;;;;24.21;51.34;100394.19;7394688;19;20006;-72
2022/08/18 00:03:12;;;;;;;9.73;8.82;;;;;;;24.19;51.48;100396.16;7393982;19;20482;-72
2022/08/18 00:05:41;;;;;;;11.88;9.18;;;;;;;24.13;51.41;100404.72;7395234;19;20014;-72
2022/08/18 00:08:09;;;;;;;9.50;8.63;;;;;;;24.05;51.75;100396.47;7393990;19;20078;-72
2022/08/18 00:10:39;;;;;;;10.40;8.90;;;;;;;24.00;52.22;100401.34;7393910;19;20445;-73
2022/08/18 00:13:08;;;;;;;10.05;8.95;;;;;;;23.94;52.30;100389.34;7395953;19;20439;-73
2022/08/18 00:15:36;;;;;;;9.43;8.48;;;;;;;23.89;52.56;100396.88;7391456;19;20086;-72
2022/08/18 00:18:07;;;;;;;9.77;8.73;;;;;;;23.85;52.99;100392.75;7395184;19;20018;-70
2022/08/18 00:20:36;;;;;;;9.40;8.60;;;;;;;23.83;52.71;100392.03;7393619;19;20015;-72
2022/08/18 00:23:04;;;;;;;10.02;9.13;;;;;;;23.80;53.09;100392.28;7394496;19;20027;-72
2022/08/18 00:25:33;;;;;;;9.65;8.60;;;;;;;23.77;53.11;100393.41;7395504;19;20019;-74
2022/08/18 00:28:01;;;;;;;9.00;8.20;;;;;;;23.74;53.31;100382.94;7395207;19;20095;-70
2022/08/18 00:30:30;;;;;;;10.27;8.90;;;;;;;23.69;53.24;100382.47;7393919;19;20031;-70
2022/08/18 00:33:00;;;;;;;9.85;8.48;;;;;;;23.64;53.11;100379.31;7395734;19;20015;-70
2022/08/18 00:35:34;;;;;;;9.68;8.68;;;;;;;23.58;53.34;100381.53;7394306;19;20410;-71
2022/08/18 00:38:05;;;;;;;10.27;9.05;;;;;;;23.51;53.23;100374.97;7394359;19;20078;-70
2022/08/18 00:40:39;;;;;;;10.90;9.15;;;;;;;23.46;53.72;100369.16;7394203;19;20028;-71
2022/08/18 00:43:13;;;;;;;9.82;8.93;;;;;;;23.40;54.32;100378.56;7392252;19;20557;-71
2022/08/18 00:45:44;;;;;;;9.05;8.30;;;;;;;23.38;54.40;100379.63;7393075;19;20035;-71
2022/08/18 00:48:15;;;;;;;9.10;8.35;;;;;;;23.36;54.70;100373.56;7394269;19;20137;-71
2022/08/18 00:50:51;;;;;;;9.93;9.00;;;;;;;23.33;54.62;100374.66;7393087;19;20010;-71
2022/08/18 00:53:23;;;;;;;8.88;8.10;;;;;;;23.32;54.80;100372.13;7393926;19;20030;-69
2022/08/18 00:55:52;;;;;;;10.43;9.43;;;;;;;23.28;55.37;100379.53;7394823;19;20079;-70
2022/08/18 00:58:33;;;;;;;10.55;9.40;;;;;;;23.25;55.26;100379.78;7392067;19;20085;-71
2022/08/18 01:01:04;;;;;;;20.02;8.70;;;;;;;23.19;55.66;100381.13;7393124;19;20014;-70
2022/08/18 01:03:38;;;;;;;10.18;9.10;;;;;;;23.14;55.69;100388.66;7393998;19;20023;-70
2022/08/18 01:06:16;;;;;;;10.75;9.75;;;;;;;23.12;56.19;100387.09;7394397;19;20033;-71
2022/08/18 01:08:45;;;;;;;10.90;9.85;;;;;;;23.08;55.97;100389.16;7394035;19;20367;-70
2022/08/18 01:11:14;;;;;;;11.43;10.32;;;;;;;23.00;56.25;100384.41;7392045;19;20010;-69
2022/08/18 01:13:44;;;;;;;14.55;9.60;;;;;;;22.98;56.62;100391.69;7393859;19;20421;-69
2022/08/18 01:21:54;;;;;;;11.25;9.55;;;;;;;22.83;57.36;100377.72;7393841;19;20035;-70
2022/08/18 01:27:13;;;;;;;11.18;10.13;;;;;;;22.71;58.03;100384.03;7395498;19;20054;-70
2022/08/18 01:29:42;;;;;;;11.15;10.07;;;;;;;22.65;57.72;100387.22;7400112;19;20018;-70
2022/08/18 01:32:11;;;;;;;11.32;10.10;;;;;;;22.56;58.15;100378.94;7400185;19;20347;-70
2022/08/18 01:34:39;;;;;;;11.18;10.00;;;;;;;22.48;57.87;100380.50;7397704;19;20030;-70
2022/08/18 01:37:08;;;;;;;11.18;10.07;;;;;;;22.41;58.11;100385.47;7400225;19;20035;-70
2022/08/18 01:39:40;;;;;;;12.23;10.10;;;;;;;22.34;58.00;100373.50;7397475;19;20018;-69
2022/08/18 01:42:08;;;;;;;10.93;9.93;;;;;;;22.31;58.13;100376.44;7398594;19;20098;-71
2022/08/18 01:44:39;;;;;;;13.40;11.25;;;;;;;22.28;58.76;100381.03;7397620;19;20095;-70
2022/08/18 01:47:09;;;;;;;11.98;10.65;;;;;;;22.26;58.71;100376.78;7400459;19;20018;-70
2022/08/18 01:49:38;;;;;;;11.20;10.10;;;;;;;22.25;58.69;100381.25;7400152;19;20018;-70
2022/08/18 01:52:08;;;;;;;12.43;11.20;;;;;;;22.22;58.95;100373.50;7400039;19;20039;-71
2022/08/18 01:54:36;;;;;;;11.25;10.15;;;;;;;22.20;59.06;100362.06;7397845;19;20105;-70
2022/08/18 01:57:13;;;;;;;11.90;10.68;;;;;;;22.16;59.11;100357.09;7399841;19;20351;-70
2022/08/18 01:59:42;;;;;;;11.82;10.63;;;;;;;22.13;59.19;100351.00;7399390;19;20023;-69
2022/08/18 02:02:12;;;;;;;11.70;10.52;;;;;;;22.11;59.87;100355.59;7397352;19;20030;-73
2022/08/18 02:04:40;;;;;;;12.18;10.98;;;;;;;22.11;59.61;100352.94;7397363;19;20485;-72
2022/08/18 02:07:13;;;;;;;12.38;10.88;;;;;;;22.10;59.34;100353.94;7399499;19;20036;-71
2022/08/18 02:09:44;;;;;;;11.68;10.57;;;;;;;22.08;59.11;100358.53;7399748;19;20045;-72
2022/08/18 02:12:15;;;;;;;11.68;10.48;;;;;;;22.06;59.32;100355.09;7399842;19;20016;-73
2022/08/18 02:14:44;;;;;;;12.55;10.88;;;;;;;22.04;59.82;100351.72;7397214;19;20014;-72
2022/08/18 02:17:14;;;;;;;12.35;11.07;;;;;;;22.02;59.29;100352.81;7398810;19;20106;-71
2022/08/18 02:19:45;;;;;;;11.55;10.50;;;;;;;22.02;59.52;100358.97;7396544;19;20510;-71
2022/08/18 02:22:17;;;;;;;12.02;10.85;;;;;;;22.02;59.83;100352.81;7399387;19;20031;-71
2022/08/18 02:24:46;;;;;;;11.52;10.30;;;;;;;22.00;59.67;100360.06;7396498;19;20424;-71
2022/08/18 02:27:18;;;;;;;12.15;11.00;;;;;;;21.93;60.40;100357.88;7398683;19;20043;-70
2022/08/18 02:29:47;;;;;;;11.55;10.45;;;;;;;21.92;60.32;100364.16;7399414;19;20032;-69
2022/08/18 02:32:15;;;;;;;12.20;11.10;;;;;;;21.88;61.11;100368.03;7396199;19;20419;-69
2022/08/18 02:34:50;;;;;;;13.07;11.65;;;;;;;21.82;61.22;100363.16;7396593;19;20029;-68
2022/08/18 02:37:20;;;;;;;11.60;10.60;;;;;;;21.75;61.59;100352.09;7394560;19;20027;-69
2022/08/18 02:39:48;;;;;;;11.70;9.95;;;;;;;21.69;62.05;100344.56;7395868;19;20078;-69
2022/08/18 02:42:20;;;;;;;11.57;10.38;;;;;;;21.63;62.21;100351.22;7398349;19;20077;-69
2022/08/18 02:44:48;;;;;;;11.98;10.88;;;;;;;21.60;62.49;100356.75;7396678;19;20050;-69
2022/08/18 02:47:20;;;;;;;12.88;11.65;;;;;;;21.57;62.75;100356.13;7398091;19;20035;-69
2022/08/18 02:49:49;;;;;;;12.93;11.20;;;;;;;21.52;63.35;100360.94;7398021;19;20014;-69
2022/08/18 02:52:17;;;;;;;12.68;11.48;;;;;;;21.46;63.42;100357.75;7395322;19;20077;-68
2022/08/18 02:54:46;;;;;;;12.05;10.85;;;;;;;21.39;63.50;100361.84;7396237;19;20014;-68
2022/08/18 02:57:14;;;;;;;12.68;11.48;;;;;;;21.36;64.20;100355.88;7395697;19;20027;-69
2022/08/18 02:59:45;;;;;;;14.75;11.63;;;;;;;21.32;64.17;100360.59;7396984;19;20372;-69
2022/08/18 03:02:14;;;;;;;12.70;11.50;;;;;;;21.28;64.48;100346.63;7395228;19;20010;-69
2022/08/18 03:04:42;;;;;;;14.10;12.73;;;;;;;21.24;64.36;100345.13;7396048;19;20031;-69
2022/08/18 03:07:11;;;;;;;16.00;11.70;;;;;;;21.21;64.40;100348.03;7397446;19;20015;-69
2022/08/18 03:09:39;;;;;;;12.68;11.48;;;;;;;21.16;65.00;100353.69;7396856;19;20494;-69
2022/08/18 03:12:09;;;;;;;13.75;12.38;;;;;;;21.12;64.82;100351.38;7395228;19;20015;-69
2022/08/18 03:14:39;;;;;;;12.95;11.70;;;;;;;21.10;64.95;100351.47;7395894;19;20022;-69
2022/08/18 03:17:13;;;;;;;13.90;11.90;;;;;;;21.05;65.27;100347.44;7396465;19;20018;-69
2022/08/18 03:19:42;;;;;;;12.60;10.90;;;;;;;21.02;65.21;100353.00;7397143;19;20025;-69
2022/08/18 03:22:11;;;;;;;14.60;13.00;;;;;;;20.98;65.51;100365.72;7396909;19;20481;-69
2022/08/18 03:24:39;;;;;;;13.82;12.50;;;;;;;20.94;65.84;100357.06;7395235;19;20027;-69
2022/08/18 03:27:09;;;;;;;14.95;13.45;;;;;;;20.90;65.68;100360.94;7396215;19;20078;-70
2022/08/18 03:29:38;;;;;;;15.48;13.50;;;;;;;20.88;65.75;100362.84;7394231;19;20528;-69
2022/08/18 03:32:10;;;;;;;14.63;13.13;;;;;;;20.86;65.75;100369.25;7394974;19;20026;-69
2022/08/18 03:34:46;;;;;;;13.90;12.60;;;;;;;20.83;65.75;100364.97;7394147;19;20022;-69
2022/08/18 03:37:15;;;;;;;14.98;13.35;;;;;;;20.80;66.14;100365.19;7396280;19;20022;-69
2022/08/18 03:39:43;;;;;;;13.68;12.38;;;;;;;20.77;66.40;100360.09;7396649;19;20030;-69
2022/08/18 03:42:12;;;;;;;13.63;12.38;;;;;;;20.76;66.15;100369.03;7395434;19;20031;-68
2022/08/18 03:44:41;;;;;;;13.77;12.48;;;;;;;20.72;66.22;100367.56;7394585;19;20010;-68
2022/08/18 03:47:12;;;;;;;13.77;12.27;;;;;;;20.71;66.73;100363.19;7396815;19;20028;-68
2022/08/18 03:49:41;;;;;;;14.40;12.55;;;;;;;20.67;66.59;100366.03;7393162;19;20018;-69
2022/08/18 03:52:11;;;;;;;12.35;11.25;;;;;;;20.63;66.69;100369.88;7393720;19;20090;-69
2022/08/18 03:54:40;;;;;;;14.05;12.82;;;;;;;20.60;67.05;100366.56;7393994;19;20030;-69
2022/08/18 03:57:10;;;;;;;13.82;12.63;;;;;;;20.59;66.88;100373.72;7395298;19;20014;-69
2022/08/18 03:59:40;;;;;;;14.00;12.27;;;;;;;20.58;67.37;100366.66;7393293;19;20018;-69
2022/08/18 04:02:12;;;;;;;13.48;12.05;;;;;;;20.56;67.32;100368.59;7393471;19;20079;-69
2022/08/18 04:04:41;;;;;;;15.48;13.13;;;;;;;20.56;67.46;100368.59;7392777;19;20467;-69
2022/08/18 04:07:15;;;;;;;15.95;14.35;;;;;;;20.54;67.31;100370.50;7394909;19;20018;-69
2022/08/18 04:09:45;;;;;;;17.33;13.70;;;;;;;20.52;67.17;100377.75;7393724;19;20015;-69
2022/08/18 04:12:17;;;;;;;17.27;13.57;;;;;;;20.51;67.55;100376.06;7393653;19;20020;-69
2022/08/18 04:14:47;;;;;;;16.35;14.05;;;;;;;20.51;67.58;100381.41;7393565;19;20104;-68
2022/08/18 04:17:23;;;;;;;14.95;13.50;;;;;;;20.49;67.36;100377.97;7394598;19;20011;-69
2022/08/18 04:19:52;;;;;;;15.70;14.05;;;;;;;20.46;67.54;100376.38;7394387;19;20010;-69
2022/08/18 04:22:21;;;;;;;16.65;14.40;;;;;;;20.43;67.53;100383.72;7394627;19;20018;-69
2022/08/18 04:24:50;;;;;;;15.55;13.73;;;;;;;20.40;67.53;100379.47;7393665;19;20078;-69
2022/08/18 04:27:19;;;;;;;18.40;16.15;;;;;;;20.40;67.29;100382.13;7392680;19;20014;-69
2022/08/18 04:29:48;;;;;;;20.13;16.48;;;;;;;20.40;67.49;100386.63;7394261;19;20039;-69
2022/08/18 04:32:19;;;;;;;19.75;16.30;;;;;;;20.39;67.72;100383.09;7392854;19;20035;-69
2022/08/18 04:34:47;;;;;;;20.58;16.33;;;;;;;20.40;67.93;100390.13;7392224;19;20422;-69
2022/08/18 04:37:16;;;;;;;17.23;15.43;;;;;;;20.41;67.64;100385.63;7394279;19;20018;-69
2022/08/18 04:39:46;;;;;;;16.50;14.75;;;;;;;20.40;67.85;100378.63;7394158;19;20015;-69
2022/08/18 04:42:15;;;;;;;15.95;14.55;;;;;;;20.40;67.60;100384.78;7392724;19;20018;-69
2022/08/18 04:44:44;;;;;;;17.83;15.93;;;;;;;20.40;67.79;100383.97;7392385;19;20384;-69
2022/08/18 04:47:13;;;;;;;17.83;15.95;;;;;;;20.40;67.45;100387.47;7394094;19;20486;-69
2022/08/18 04:49:44;;;;;;;16.90;15.10;;;;;;;20.42;67.34;100388.22;7392118;19;20014;-69
2022/08/18 04:54:53;;;;;;;15.70;14.30;;;;;;;20.46;67.31;100388.84;7392844;19;20014;-69
2022/08/18 04:57:22;;;;;;;17.08;15.48;;;;;;;20.48;67.00;100397.59;7394014;19;20027;-69
2022/08/18 04:59:53;;;;;;;18.48;16.50;;;;;;;20.50;67.38;100393.84;7393862;19;20035;-69
2022/08/18 05:02:23;;;;;;;19.00;16.73;;;;;;;20.53;66.71;100398.13;7397396;19;20078;-69
2022/08/18 05:04:54;;;;;;;17.42;15.60;;;;;;;20.56;66.97;100403.25;7399059;19;20033;-69
2022/08/18 05:07:24;;;;;;;17.60;15.80;;;;;;;20.59;66.91;100399.53;7400770;19;20011;-69
2022/08/18 05:09:53;;;;;;;17.25;15.52;;;;;;;20.61;66.27;100406.44;7398457;19;20019;-69
2022/08/18 05:12:22;;;;;;;17.10;15.50;;;;;;;20.65;66.47;100405.25;7398805;19;20023;-69
2022/08/18 05:14:52;;;;;;;17.42;15.75;;;;;;;20.70;66.66;100406.75;7398764;19;20026;-69
2022/08/18 05:17:21;;;;;;;16.08;14.48;;;;;;;20.73;66.01;100409.25;7401404;19;20027;-69
2022/08/18 05:19:50;;;;;;;17.95;16.15;;;;;;;20.77;66.57;100403.56;7399832;19;20031;-69
2022/08/18 05:22:21;;;;;;;17.13;15.35;;;;;;;20.80;66.27;100400.72;7400369;19;20043;-69
2022/08/18 05:24:51;;;;;;;17.25;15.48;;;;;;;20.85;65.99;100402.19;7397491;19;20015;-68
2022/08/18 05:27:20;;;;;;;17.38;15.20;;;;;;;20.86;66.20;100402.06;7399851;19;20508;-68
2022/08/18 05:29:48;;;;;;;18.65;16.70;;;;;;;20.89;65.68;100407.22;7399931;19;20013;-69
2022/08/18 05:32:17;;;;;;;17.45;15.80;;;;;;;20.92;65.86;100416.81;7398163;19;20018;-69
2022/08/18 05:34:47;;;;;;;16.63;14.98;;;;;;;20.93;65.73;100411.34;7397491;19;20014;-69
2022/08/18 05:37:31;;;;;;;16.10;14.45;;;;;;;20.96;65.09;100421.78;7400086;19;20038;-69
2022/08/18 05:40:02;;;;;;;16.10;14.40;;;;;;;20.97;64.92;100418.16;7400781;19;20022;-69
2022/08/18 05:42:36;;;;;;;15.25;13.85;;;;;;;21.01;64.36;100421.47;7399320;19;20014;-68
2022/08/18 05:45:10;;;;;;;17.00;15.30;;;;;;;21.02;64.55;100419.69;7397036;19;20486;-68
2022/08/18 05:47:38;;;;;;;17.30;14.80;;;;;;;20.98;64.03;100417.22;7399962;19;20372;-68
2022/08/18 05:50:10;;;;;;;15.93;14.43;;;;;;;20.99;63.98;100424.25;7399994;19;20035;-69
2022/08/18 05:52:45;;;;;;;15.48;13.95;;;;;;;20.99;63.72;100428.72;7397360;19;20013;-69
2022/08/18 05:58:03;;;;;;;15.00;13.55;;;;;;;21.03;63.60;100429.38;7400124;19;20007;-69
2022/08/18 06:00:32;;;;;;;;;;;;;;;21.06;63.40;100421.16;7400879;19;20018;-69
2022/08/18 06:03:06;;;;;;;15.98;14.32;;;;;;;21.12;63.20;100423.41;7397123;19;19932;-70
2022/08/18 06:05:38;;;;;;;15.00;13.57;;;;;;;21.16;62.78;100422.22;7399306;19;20027;-69
2022/08/18 06:08:11;;;;;;;14.20;12.90;;;;;;;21.21;62.69;100416.56;7399765;19;20019;-69
2022/08/18 06:10:43;;;;;;;14.48;13.07;;;;;;;21.29;62.66;100419.50;7399097;19;20087;-69
2022/08/18 06:13:13;;;;;;;13.90;12.68;;;;;;;21.38;62.26;100426.00;7393903;19;20435;-68
2022/08/18 06:15:56;;;;;;;13.60;12.20;;;;;;;21.47;61.81;100422.66;7398721;19;20545;-69
2022/08/18 06:18:45;;;;;;;13.17;11.73;;;;;;;21.56;61.57;100424.69;7399236;19;20035;-69
2022/08/18 06:21:36;;;;;;;15.73;12.10;;;;;;;21.67;61.29;100421.22;7398242;19;20436;-69
2022/08/18 06:24:18;;;;;;;13.68;12.02;;;;;;;21.81;60.72;100430.88;7395639;19;20035;-68
2022/08/18 06:26:53;;;;;;;12.48;11.32;;;;;;;21.90;60.35;100427.53;7396712;19;20104;-69
2022/08/18 06:29:36;;;;;;;13.15;11.93;;;;;;;21.99;59.56;100428.69;7398018;19;20035;-69
2022/08/18 06:32:23;;;;;;;11.97;10.63;;;;;;;22.12;59.26;100433.94;7396202;19;20431;-69
2022/08/18 06:35:16;;;;;;;12.02;10.82;;;;;;;22.21;58.73;100430.56;7395430;19;20431;-69
2022/08/18 06:40:34;;;;;;;12.80;9.77;;;;;;;22.43;57.92;100435.16;7397660;19;19911;-69
2022/08/18 06:43:02;;;;;;;10.93;9.85;;;;;;;22.53;57.28;100445.13;7397759;19;20038;-70
2022/08/18 06:45:36;;;;;;;12.98;9.90;;;;;;;22.63;57.12;100445.28;7397253;19;20510;-69
2022/08/18 06:48:13;;;;;;;11.65;9.65;;;;;;;22.68;56.59;100440.44;7397257;19;20086;-69
2022/08/18 06:50:50;;;;;;;11.68;10.50;;;;;;;22.80;56.86;100439.47;7397019;19;20545;-69
2022/08/18 06:53:19;;;;;;;14.07;11.70;;;;;;;22.90;56.68;100443.13;7395425;19;20046;-69
2022/08/18 06:55:52;;;;;;;12.73;11.48;;;;;;;23.00;56.09;100440.59;7395132;19;20014;-69
2022/08/18 06:58:28;;;;;;;11.45;10.35;;;;;;;23.09;56.07;100447.88;7396993;19;20085;-69
2022/08/18 07:01:01;;;;;;;15.07;12.10;;;;;;;23.19;55.93;100456.06;7394936;19;20078;-70
2022/08/18 07:03:45;;;;;;;13.80;12.38;;;;;;;23.30;55.43;100454.34;7395923;19;20014;-69
2022/08/18 07:06:29;;;;;;;12.40;10.57;;;;;;;23.37;55.31;100456.41;7395881;19;20014;-69
2022/08/18 07:09:23;;;;;;;13.32;11.98;;;;;;;23.47;55.15;100459.19;7396579;19;20014;-70
2022/08/18 07:12:05;;;;;;;;;;;;;;;23.54;55.17;100462.22;7398095;19;20070;-70
2022/08/18 07:14:43;;;;;;;12.77;11.48;;;;;;;23.59;55.29;100463.56;7395524;19;19918;-69
2022/08/18 07:17:15;;;;;;;14.27;12.27;;;;;;;23.67;54.75;100462.06;7395088;19;20018;-69
2022/08/18 07:19:43;;;;;;;14.05;11.88;;;;;;;23.73;55.01;100465.13;7396518;19;20491;-69
2022/08/18 07:22:16;;;;;;;13.60;12.40;;;;;;;23.80;54.74;100465.44;7394964;19;20035;-69
2022/08/18 07:24:47;;;;;;;13.73;12.32;;;;;;;23.87;54.09;100455.94;7394733;19;20018;-69
2022/08/18 07:27:20;;;;;;;15.77;13.98;;;;;;;23.94;54.50;100453.63;7395915;19;20014;-69
2022/08/18 07:30:04;;;;;;;14.38;12.90;;;;;;;24.04;54.33;100449.19;7395790;19;20432;-69
2022/08/18 07:32:39;;;;;;;14.57;13.07;;;;;;;24.14;53.93;100451.97;7395478;19;20018;-69
2022/08/18 07:35:11;;;;;;;14.65;13.20;;;;;;;24.23;53.95;100450.34;7394432;19;20018;-70
2022/08/18 07:37:46;;;;;;;14.05;12.65;;;;;;;24.33;53.95;100451.25;7396269;19;20019;-69
2022/08/18 07:40:23;;;;;;;16.05;13.20;;;;;;;24.44;53.43;100452.19;7395666;19;20384;-70
2022/08/18 07:43:00;;;;;;;15.25;13.65;;;;;;;24.51;53.22;100454.19;7395597;19;20540;-70
2022/08/18 07:45:34;;;;;;;15.13;13.63;;;;;;;24.60;53.21;100459.78;7396119;19;20039;-69
2022/08/18 07:48:09;;;;;;;14.15;12.80;;;;;;;24.69;53.15;100459.00;7395724;19;20031;-69
2022/08/18 07:50:46;;;;;;;14.55;12.95;;;;;;;24.81;52.76;100466.00;7395676;19;20018;-69
2022/08/18 07:53:28;;;;;;;15.35;13.75;;;;;;;24.90;52.51;100469.72;7394312;19;20025;-70
2022/08/18 07:56:02;;;;;;;14.98;13.57;;;;;;;24.98;52.53;100466.38;7393694;19;20485;-69
2022/08/18 07:58:40;;;;;;;19.88;14.63;;;;;;;25.08;52.19;100474.47;7394175;19;20423;-69
2022/08/18 08:01:19;;;;;;;16.50;14.25;;;;;;;25.17;52.02;100470.97;7394126;19;20074;-70
2022/08/18 08:04:06;;;;;;;16.17;14.50;;;;;;;25.25;51.50;100479.22;7392991;19;20007;-69
2022/08/18 08:06:40;;;;;;;19.67;13.10;;;;;;;25.33;51.33;100475.84;7395359;19;20015;-69
2022/08/18 08:09:22;;;;;;;15.13;13.18;;;;;;;25.43;51.21;100476.75;7395035;19;20022;-69
2022/08/18 08:11:57;;;;;;;14.10;12.80;;;;;;;25.49;50.71;100462.78;7395447;19;20084;-70
2022/08/18 08:14:40;;;;;;;14.02;12.18;;;;;;;25.61;50.58;100468.03;7393346;19;20086;-69
2022/08/18 08:17:22;;;;;;;15.93;13.43;;;;;;;25.69;50.25;100469.03;7392253;19;20513;-69
2022/08/18 08:20:11;;;;;;;18.30;13.10;;;;;;;25.79;50.21;100471.75;7394938;19;20017;-69
2022/08/18 08:22:45;;;;;;;15.60;13.93;;;;;;;25.86;50.13;100456.75;7394703;19;20022;-69
2022/08/18 08:25:24;;;;;;;13.82;12.38;;;;;;;25.93;49.94;100456.19;7392105;19;20022;-69
2022/08/18 08:28:08;;;;;;;15.20;13.32;;;;;;;26.00;49.63;100452.78;7394372;19;20011;-69
2022/08/18 08:30:48;;;;;;;13.52;12.15;;;;;;;26.09;49.54;100455.69;7395230;19;20010;-69
2022/08/18 08:33:26;;;;;;;14.38;12.23;;;;;;;26.14;49.69;100461.47;7392152;19;20023;-69
2022/08/18 08:35:59;;;;;;;15.43;12.85;;;;;;;26.21;49.24;100454.53;7394258;19;20018;-68
2022/08/18 08:38:38;;;;;;;13.38;11.90;;;;;;;26.28;49.01;100462.88;7400626;19;20486;-69
2022/08/18 08:41:13;;;;;;;12.57;11.57;;;;;;;26.35;48.63;100455.94;7401634;19;20081;-69
2022/08/18 08:43:46;;;;;;;13.48;12.07;;;;;;;26.43;48.58;100449.84;7400734;19;20033;-69
2022/08/18 08:46:22;;;;;;;13.45;12.20;;;;;;;26.48;48.27;100451.09;7402087;19;20036;-69
2022/08/18 08:48:54;;;;;;;13.38;11.95;;;;;;;26.54;47.85;100455.06;7402075;19;20047;-69
2022/08/18 08:51:34;;;;;;;12.87;11.60;;;;;;;26.59;47.64;100449.22;7401228;19;20020;-70
2022/08/18 08:54:08;;;;;;;13.07;11.75;;;;;;;26.66;47.95;100447.66;7398448;19;20481;-70
2022/08/18 08:57:03;;;;;;;12.48;11.27;;;;;;;26.75;47.35;100451.38;7401160;19;20015;-68
2022/08/18 08:59:31;;;;;;;11.55;10.55;;;;;;;26.81;46.95;100451.63;7398845;19;20038;-69
2022/08/18 09:02:37;;;;;;;11.30;10.30;;;;;;;26.90;46.42;100449.06;7400058;19;20135;-68
2022/08/18 09:05:11;;;;;;;11.95;10.73;;;;;;;26.98;46.50;100452.72;7398413;19;20015;-68
2022/08/18 09:07:57;;;;;;;13.10;10.65;;;;;;;27.08;46.62;100447.28;7398186;19;20769;-68
2022/08/18 09:10:43;;;;;;;11.80;10.75;;;;;;;27.15;45.56;100436.75;7398899;19;20019;-68
2022/08/18 09:13:40;;;;;;;12.27;11.13;;;;;;;27.25;45.74;100436.72;7399278;19;20018;-69
2022/08/18 09:16:21;;;;;;;11.82;10.73;;;;;;;27.30;46.12;100437.13;7400129;19;20011;-69
2022/08/18 09:19:10;;;;;;;13.13;10.68;;;;;;;27.39;45.95;100441.63;7400494;19;20070;-69
2022/08/18 09:21:46;;;;;;;13.13;11.90;;;;;;;27.49;45.79;100436.19;7400203;19;20038;-69
2022/08/18 09:24:24;;;;;;;12.43;11.13;;;;;;;27.57;45.72;100435.44;7399169;19;20022;-69
2022/08/18 09:26:56;;;;;;;12.45;11.35;;;;;;;27.65;45.68;100435.50;7400738;19;20039;-68
2022/08/18 09:29:47;;;;;;;12.55;11.45;;;;;;;27.75;44.83;100428.22;7400589;19;20045;-69
2022/08/18 09:32:40;;;;;;;13.60;11.70;;;;;;;27.82;44.95;100420.34;7399067;19;20031;-68
2022/08/18 09:35:29;;;;;;;12.90;11.43;;;;;;;27.89;44.98;100416.06;7397861;19;20053;-68
2022/08/18 09:43:38;;;;;;;11.13;10.07;;;;;;;28.16;44.75;100408.88;7399391;19;20007;-70
2022/08/18 09:46:09;;;;;;;13.65;9.93;;;;;;;28.25;44.42;100407.09;7399163;19;20519;-69
2022/08/18 09:48:40;;;;;;;11.35;10.15;;;;;;;28.37;43.89;100403.16;7396582;19;20015;-69
2022/08/18 09:51:33;;;;;;;11.65;9.50;;;;;;;28.48;43.60;100410.13;7399727;19;20022;-69
2022/08/18 09:54:16;;;;;;;9.40;8.60;;;;;;;28.59;42.89;100404.44;7397713;19;20094;-69
2022/08/18 09:56:59;;;;;;;;;;;;;;;28.69;42.87;100407.09;7401097;19;20015;-68
2022/08/18 09:59:57;;;;;;;9.00;8.30;;;;;;;28.80;41.94;100405.94;7399577;19;19919;-69
2022/08/18 10:03:05;;;;;;;9.48;8.48;;;;;;;28.90;40.97;100405.81;7396915;19;20018;-69
2022/08/18 10:05:34;;;;;;;8.90;8.00;;;;;;;29.01;41.07;100400.13;7398064;19;20083;-69
2022/08/18 10:08:37;;;;;;;10.80;8.98;;;;;;;29.14;41.41;100401.53;7399058;19;20122;-68
2022/08/18 10:11:24;;;;;;;9.27;8.50;;;;;;;29.26;41.06;100405.63;7399421;19;20372;-69
2022/08/18 10:14:18;;;;;;;11.95;8.35;;;;;;;29.39;40.26;100400.63;7397681;19;20018;-69
2022/08/18 10:16:57;;;;;;;9.43;8.57;;;;;;;29.51;40.27;100392.22;7399044;19;20018;-69
2022/08/18 10:19:36;;;;;;;8.88;8.13;;;;;;;29.63;39.39;100390.06;7398713;19;20028;-68
2022/08/18 10:22:33;;;;;;;8.05;7.28;;;;;;;29.73;38.81;100402.38;7399048;19;20011;-69
2022/08/18 10:25:05;;;;;;;7.45;6.68;;;;;;;29.80;38.79;100402.56;7395873;19;20074;-69
2022/08/18 10:27:48;;;;;;;7.47;6.60;;;;;;;29.88;38.21;100397.19;7397052;19;20018;-69
2022/08/18 10:30:46;;;;;;;9.60;5.90;;;;;;;29.99;37.51;100396.03;7398485;19;20074;-69
2022/08/18 10:33:50;;;;;;;7.45;6.40;;;;;;;30.12;37.54;100389.25;7395645;19;20026;-69
2022/08/18 10:36:38;;;;;;;10.13;6.97;;;;;;;30.24;37.31;100379.75;7394568;19;20015;-69
2022/08/18 10:39:08;;;;;;;6.22;5.63;;;;;;;30.37;36.61;100377.38;7397709;19;20011;-69
2022/08/18 10:41:48;;;;;;;7.25;6.25;;;;;;;30.47;36.57;100373.63;7398877;19;20019;-68
2022/08/18 10:44:21;;;;;;;7.22;6.47;;;;;;;30.62;36.69;100368.38;7396510;19;20018;-69
2022/08/18 10:46:50;;;;;;;8.00;5.18;;;;;;;30.77;36.16;100371.22;7397509;19;20010;-68
2022/08/18 10:49:25;;;;;;;8.80;7.55;;;;;;;30.90;35.66;100374.22;7398385;19;20021;-69
2022/08/18 10:52:09;;;;;;;6.97;5.82;;;;;;;31.07;35.28;100374.16;7398100;19;20031;-69
2022/08/18 10:54:57;;;;;;;7.82;6.65;;;;;;;31.22;35.05;100366.97;7395207;19;20022;-68
2022/08/18 10:57:41;;;;;;;7.07;6.38;;;;;;;31.31;34.71;100356.94;7397792;19;20022;-70
2022/08/18 11:00:16;;;;;;;7.97;6.40;;;;;;;31.36;34.37;100365.38;7395748;19;20011;-69
2022/08/18 11:03:03;;;;;;;7.25;6.65;;;;;;;31.38;33.42;100363.34;7396040;19;20007;-70
2022/08/18 11:05:32;;;;;;;8.38;6.53;;;;;;;31.39;34.30;100364.16;7397069;19;20513;-70
2022/08/18 11:08:05;;;;;;;7.78;6.22;;;;;;;31.39;33.89;100369.56;7396777;19;20091;-70
2022/08/18 11:10:41;;;;;;;6.97;6.22;;;;;;;31.39;33.13;100358.75;7397522;19;20018;-69
2022/08/18 11:13:23;;;;;;;7.13;6.47;;;;;;;31.43;34.17;100362.78;7394641;19;20377;-69
2022/08/18 11:16:04;;;;;;;10.57;6.80;;;;;;;31.41;33.31;100362.97;7396085;19;20378;-69
2022/08/18 11:18:37;;;;;;;10.00;6.45;;;;;;;31.43;33.73;100358.22;7394272;19;20073;-69
2022/08/18 11:21:25;;;;;;;7.18;6.20;;;;;;;31.49;33.76;100359.34;7396313;19;20023;-69
2022/08/18 11:24:05;;;;;;;9.45;6.78;;;;;;;31.63;34.12;100361.31;7395272;19;20019;-69
2022/08/18 11:26:35;;;;;;;8.23;7.43;;;;;;;31.75;33.94;100356.31;7396036;19;20019;-69
2022/08/18 11:29:20;;;;;;;8.80;7.20;;;;;;;31.88;33.21;100349.44;7395124;19;20026;-69
2022/08/18 11:31:49;;;;;;;6.82;6.15;;;;;;;32.00;33.12;100359.66;7395143;19;20486;-69
2022/08/18 11:34:23;;;;;;;10.40;6.43;;;;;;;32.13;33.38;100348.16;7394285;19;20035;-69
2022/08/18 11:37:01;;;;;;;7.25;6.18;;;;;;;32.27;32.16;100351.94;7395910;19;20130;-69
2022/08/18 11:39:31;;;;;;;6.95;6.32;;;;;;;32.41;32.89;100350.28;7394179;19;20074;-69
2022/08/18 11:42:01;;;;;;;7.28;6.10;;;;;;;32.56;32.61;100352.16;7394726;19;20014;-69
2022/08/18 11:44:34;;;;;;;8.27;6.90;;;;;;;32.71;31.93;100349.44;7393453;19;20011;-69
2022/08/18 11:47:17;;;;;;;6.75;6.15;;;;;;;32.85;31.15;100353.22;7395981;19;20018;-70
2022/08/18 11:49:57;;;;;;;6.00;5.40;;;;;;;32.93;30.43;100355.81;7395939;19;20014;-69
2022/08/18 11:52:30;;;;;;;8.23;5.40;;;;;;;32.96;30.48;100350.00;7395193;19;20073;-69
2022/08/18 11:55:02;;;;;;;;;;;;;;;33.01;30.85;100347.56;7394551;19;20074;-69
2022/08/18 11:57:53;;;;;;;11.13;5.57;;;;;;;33.06;30.23;100342.38;7396297;19;19949;-69
2022/08/18 12:00:52;;;;;;;8.35;6.50;;;;;;;33.11;31.01;100349.94;7396334;19;20022;-69
2022/08/18 12:03:33;;;;;;;7.10;6.50;;;;;;;33.15;31.04;100354.00;7393348;19;20034;-69
2022/08/18 12:06:12;;;;;;;8.77;5.93;;;;;;;33.16;30.85;100349.38;7395697;19;20015;-69
2022/08/18 12:08:53;;;;;;;7.68;5.80;;;;;;;33.25;30.00;100348.22;7396099;19;20022;-69
2022/08/18 12:11:24;;;;;;;6.85;6.22;;;;;;;33.33;30.70;100347.28;7392746;19;20647;-69